sensor_id;sensor_type;location;lat;lon;timestamp;P1;durP1;ratioP1;P2;durP2;ratioP2
50092;SDS011;35974;47.752;10.290;2022-09-12T00:01:01;2.40;;;1.30;;
50092;SDS011;35974;47.752;10.290;2022-09-12T00:03:42;1.63;;;1.13;;
50092;SDS011;35974;47.752;10.290;2022-09-12T00:06:14;5.47;;;1.35;;
50092;SDS011;35974;47.752;10.290;2022-09-12T00:08:48;2.33;;;1.42;;
50092;SDS011;35974;47.752;10.290;2022-09-12T00:11:16;2.72;;;1.30;;
50092;SDS011;35974;47.752;10.290;2022-09-12T00:13:42;2.08;;;1.20;;
50092;SDS011;35974;47.752;10.290;2022-09-12T00:16:20;2.60;;;1.10;;
50092;SDS011;35974;47.752;10.290;2022-09-12T00:18:48;2.28;;;1.27;;
50092;SDS011;35974;47.752;10.290;2022-09-12T00:21:16;2.40;;;1.40;;
50092;SDS011;35974;47.752;10.290;2022-09-12T00:23:44;1.65;;;1.10;;
50092;SDS011;35974;47.752;10.290;2022-09-12T00:26:11;2.88;;;1.10;;
50092;SDS011;35974;47.752;10.290;2022-09-12T00:28:39;2.17;;;1.27;;
50092;SDS011;35974;47.752;10.290;2022-09-12T00:31:10;2.88;;;1.52;;
50092;SDS011;35974;47.752;10.290;2022-09-12T00:33:39;3.58;;;1.10;;
50092;SDS011;35974;47.752;10.290;2022-09-12T00:36:07;2.47;;;1.10;;
50092;SDS011;35974;47.752;10.290;2022-09-12T00:38:36;2.00;;;1.20;;
50092;SDS011;35974;47.752;10.290;2022-09-12T00:41:04;1.92;;;1.27;;
50092;SDS011;35974;47.752;10.290;2022-09-12T00:51:51;3.17;;;0.98;;
50092;SDS011;35974;47.752;10.290;2022-09-12T00:54:23;1.00;;;0.70;;
50092;SDS011;35974;47.752;10.290;2022-09-12T00:56:56;1.98;;;0.60;;
50092;SDS011;35974;47.752;10.290;2022-09-12T00:59:28;3.33;;;0.90;;
50092;SDS011;35974;47.752;10.290;2022-09-12T01:01:59;3.03;;;0.80;;
50092;SDS011;35974;47.752;10.290;2022-09-12T01:04:26;1.05;;;0.70;;
50092;SDS011;35974;47.752;10.290;2022-09-12T01:06:53;1.75;;;0.65;;
50092;SDS011;35974;47.752;10.290;2022-09-12T01:09:23;1.77;;;0.70;;
50092;SDS011;35974;47.752;10.290;2022-09-12T01:11:50;2.22;;;0.80;;
50092;SDS011;35974;47.752;10.290;2022-09-12T01:14:20;3.88;;;0.80;;
50092;SDS011;35974;47.752;10.290;2022-09-12T01:16:46;2.17;;;0.98;;
50092;SDS011;35974;47.752;10.290;2022-09-12T01:28:11;1.17;;;1.00;;
50092;SDS011;35974;47.752;10.290;2022-09-12T01:33:49;1.35;;;1.00;;
50092;SDS011;35974;47.752;10.290;2022-09-12T01:39:10;1.17;;;0.80;;
50092;SDS011;35974;47.752;10.290;2022-09-12T01:47:38;1.30;;;0.90;;
50092;SDS011;35974;47.752;10.290;2022-09-12T01:50:15;1.15;;;0.80;;
50092;SDS011;35974;47.752;10.290;2022-09-12T01:52:51;1.40;;;1.00;;
50092;SDS011;35974;47.752;10.290;2022-09-12T01:55:28;2.38;;;1.10;;
50092;SDS011;35974;47.752;10.290;2022-09-12T01:58:02;1.02;;;0.80;;
50092;SDS011;35974;47.752;10.290;2022-09-12T02:00:32;2.47;;;1.00;;
50092;SDS011;35974;47.752;10.290;2022-09-12T02:03:06;1.77;;;1.02;;
50092;SDS011;35974;47.752;10.290;2022-09-12T02:05:45;1.05;;;0.80;;
50092;SDS011;35974;47.752;10.290;2022-09-12T02:08:33;1.02;;;0.80;;
50092;SDS011;35974;47.752;10.290;2022-09-12T02:11:16;2.95;;;0.90;;
50092;SDS011;35974;47.752;10.290;2022-09-12T02:13:48;0.52;;;0.52;;
50092;SDS011;35974;47.752;10.290;2022-09-12T02:19:04;4.93;;;0.70;;
50092;SDS011;35974;47.752;10.290;2022-09-12T02:21:36;2.38;;;0.98;;
50092;SDS011;35974;47.752;10.290;2022-09-12T02:24:06;2.35;;;0.73;;
50092;SDS011;35974;47.752;10.290;2022-09-12T02:26:43;1.30;;;0.80;;
50092;SDS011;35974;47.752;10.290;2022-09-12T02:29:14;2.05;;;0.80;;
50092;SDS011;35974;47.752;10.290;2022-09-12T02:31:45;1.85;;;0.80;;
50092;SDS011;35974;47.752;10.290;2022-09-12T02:37:17;5.07;;;1.10;;
50092;SDS011;35974;47.752;10.290;2022-09-12T02:39:45;2.22;;;0.90;;
50092;SDS011;35974;47.752;10.290;2022-09-12T02:42:12;4.15;;;1.00;;
50092;SDS011;35974;47.752;10.290;2022-09-12T02:44:38;0.73;;;0.68;;
50092;SDS011;35974;47.752;10.290;2022-09-12T02:50:04;2.05;;;0.80;;
50092;SDS011;35974;47.752;10.290;2022-09-12T02:52:33;0.70;;;0.70;;
50092;SDS011;35974;47.752;10.290;2022-09-12T02:55:01;0.85;;;0.80;;
50092;SDS011;35974;47.752;10.290;2022-09-12T02:57:30;3.28;;;0.82;;
50092;SDS011;35974;47.752;10.290;2022-09-12T02:59:58;0.47;;;0.47;;
50092;SDS011;35974;47.752;10.290;2022-09-12T03:08:11;3.22;;;0.70;;
50092;SDS011;35974;47.752;10.290;2022-09-12T03:21:35;2.42;;;0.68;;
50092;SDS011;35974;47.752;10.290;2022-09-12T03:24:16;0.50;;;0.50;;
50092;SDS011;35974;47.752;10.290;2022-09-12T03:26:54;0.80;;;0.70;;
50092;SDS011;35974;47.752;10.290;2022-09-12T03:29:23;2.10;;;0.73;;
50092;SDS011;35974;47.752;10.290;2022-09-12T03:31:53;1.25;;;0.40;;
50092;SDS011;35974;47.752;10.290;2022-09-12T03:34:22;1.65;;;0.60;;
50092;SDS011;35974;47.752;10.290;2022-09-12T03:36:50;1.85;;;1.15;;
50092;SDS011;35974;47.752;10.290;2022-09-12T03:39:17;2.92;;;0.68;;
50092;SDS011;35974;47.752;10.290;2022-09-12T03:41:45;1.77;;;0.70;;
50092;SDS011;35974;47.752;10.290;2022-09-12T03:44:11;0.90;;;0.70;;
50092;SDS011;35974;47.752;10.290;2022-09-12T03:46:38;1.25;;;0.93;;
50092;SDS011;35974;47.752;10.290;2022-09-12T03:49:04;1.23;;;1.02;;
50092;SDS011;35974;47.752;10.290;2022-09-12T03:51:31;1.10;;;0.70;;
50092;SDS011;35974;47.752;10.290;2022-09-12T03:53:57;5.22;;;0.82;;
50092;SDS011;35974;47.752;10.290;2022-09-12T03:56:24;1.15;;;0.60;;
50092;SDS011;35974;47.752;10.290;2022-09-12T03:58:50;1.63;;;0.85;;
50092;SDS011;35974;47.752;10.290;2022-09-12T04:01:17;1.70;;;0.88;;
50092;SDS011;35974;47.752;10.290;2022-09-12T04:03:45;1.08;;;0.80;;
50092;SDS011;35974;47.752;10.290;2022-09-12T04:06:19;2.05;;;1.00;;
50092;SDS011;35974;47.752;10.290;2022-09-12T04:08:47;6.55;;;2.60;;
50092;SDS011;35974;47.752;10.290;2022-09-12T04:11:16;4.45;;;1.67;;
50092;SDS011;35974;47.752;10.290;2022-09-12T04:13:44;2.15;;;1.48;;
50092;SDS011;35974;47.752;10.290;2022-09-12T04:16:12;2.60;;;1.35;;
50092;SDS011;35974;47.752;10.290;2022-09-12T04:18:40;3.05;;;1.50;;
50092;SDS011;35974;47.752;10.290;2022-09-12T04:21:07;1.88;;;1.30;;
50092;SDS011;35974;47.752;10.290;2022-09-12T04:23:38;2.03;;;1.20;;
50092;SDS011;35974;47.752;10.290;2022-09-12T04:26:05;1.35;;;0.85;;
50092;SDS011;35974;47.752;10.290;2022-09-12T04:28:33;4.40;;;1.30;;
50092;SDS011;35974;47.752;10.290;2022-09-12T04:31:02;2.33;;;1.23;;
50092;SDS011;35974;47.752;10.290;2022-09-12T04:33:30;4.93;;;2.08;;
50092;SDS011;35974;47.752;10.290;2022-09-12T04:36:01;2.33;;;1.40;;
50092;SDS011;35974;47.752;10.290;2022-09-12T04:38:32;3.67;;;1.40;;
50092;SDS011;35974;47.752;10.290;2022-09-12T04:40:59;2.55;;;1.60;;
50092;SDS011;35974;47.752;10.290;2022-09-12T04:43:26;2.58;;;1.63;;
50092;SDS011;35974;47.752;10.290;2022-09-12T04:45:52;5.70;;;1.90;;
50092;SDS011;35974;47.752;10.290;2022-09-12T04:48:19;5.35;;;2.22;;
50092;SDS011;35974;47.752;10.290;2022-09-12T04:50:45;1.90;;;1.38;;
50092;SDS011;35974;47.752;10.290;2022-09-12T04:53:11;7.90;;;4.80;;
50092;SDS011;35974;47.752;10.290;2022-09-12T04:55:38;2.55;;;1.50;;
50092;SDS011;35974;47.752;10.290;2022-09-12T04:58:04;3.38;;;1.40;;
50092;SDS011;35974;47.752;10.290;2022-09-12T05:00:31;4.03;;;1.10;;
50092;SDS011;35974;47.752;10.290;2022-09-12T05:02:58;3.40;;;1.20;;
50092;SDS011;35974;47.752;10.290;2022-09-12T05:05:24;3.88;;;1.30;;
50092;SDS011;35974;47.752;10.290;2022-09-12T05:07:51;1.80;;;1.02;;
50092;SDS011;35974;47.752;10.290;2022-09-12T05:10:17;1.63;;;1.10;;
50092;SDS011;35974;47.752;10.290;2022-09-12T05:12:43;3.00;;;0.90;;
50092;SDS011;35974;47.752;10.290;2022-09-12T05:15:10;1.25;;;0.80;;
50092;SDS011;35974;47.752;10.290;2022-09-12T05:17:36;1.33;;;0.73;;
50092;SDS011;35974;47.752;10.290;2022-09-12T05:20:03;1.20;;;0.90;;
50092;SDS011;35974;47.752;10.290;2022-09-12T05:22:29;1.60;;;0.82;;
50092;SDS011;35974;47.752;10.290;2022-09-12T05:24:56;2.55;;;1.20;;
50092;SDS011;35974;47.752;10.290;2022-09-12T05:27:22;4.50;;;1.13;;
50092;SDS011;35974;47.752;10.290;2022-09-12T05:29:49;1.70;;;1.10;;
50092;SDS011;35974;47.752;10.290;2022-09-12T05:32:15;2.58;;;1.15;;
50092;SDS011;35974;47.752;10.290;2022-09-12T05:34:41;3.42;;;1.05;;
50092;SDS011;35974;47.752;10.290;2022-09-12T05:37:08;1.88;;;1.08;;
50092;SDS011;35974;47.752;10.290;2022-09-12T05:39:34;2.17;;;1.30;;
50092;SDS011;35974;47.752;10.290;2022-09-12T05:42:00;1.77;;;1.25;;
50092;SDS011;35974;47.752;10.290;2022-09-12T05:44:27;3.10;;;1.30;;
50092;SDS011;35974;47.752;10.290;2022-09-12T05:46:55;3.42;;;1.70;;
50092;SDS011;35974;47.752;10.290;2022-09-12T05:49:22;5.05;;;1.40;;
50092;SDS011;35974;47.752;10.290;2022-09-12T05:51:49;1.85;;;1.40;;
50092;SDS011;35974;47.752;10.290;2022-09-12T05:54:20;2.63;;;1.50;;
50092;SDS011;35974;47.752;10.290;2022-09-12T05:56:47;2.05;;;1.45;;
50092;SDS011;35974;47.752;10.290;2022-09-12T05:59:18;2.65;;;1.50;;
50092;SDS011;35974;47.752;10.290;2022-09-12T06:01:47;1.95;;;1.60;;
50092;SDS011;35974;47.752;10.290;2022-09-12T06:04:14;1.92;;;1.42;;
50092;SDS011;35974;47.752;10.290;2022-09-12T06:06:42;2.67;;;1.60;;
50092;SDS011;35974;47.752;10.290;2022-09-12T06:09:14;1.80;;;1.45;;
50092;SDS011;35974;47.752;10.290;2022-09-12T06:11:41;7.82;;;1.60;;
50092;SDS011;35974;47.752;10.290;2022-09-12T06:14:10;2.15;;;1.70;;
50092;SDS011;35974;47.752;10.290;2022-09-12T06:16:39;3.40;;;1.60;;
50092;SDS011;35974;47.752;10.290;2022-09-12T06:19:07;2.38;;;1.70;;
50092;SDS011;35974;47.752;10.290;2022-09-12T06:21:44;4.10;;;1.80;;
50092;SDS011;35974;47.752;10.290;2022-09-12T06:24:13;2.60;;;1.88;;
50092;SDS011;35974;47.752;10.290;2022-09-12T06:26:40;2.33;;;1.60;;
50092;SDS011;35974;47.752;10.290;2022-09-12T06:29:08;2.22;;;1.70;;
50092;SDS011;35974;47.752;10.290;2022-09-12T06:31:37;1.98;;;1.50;;
50092;SDS011;35974;47.752;10.290;2022-09-12T06:34:07;6.05;;;1.98;;
50092;SDS011;35974;47.752;10.290;2022-09-12T06:36:36;2.28;;;1.80;;
50092;SDS011;35974;47.752;10.290;2022-09-12T06:39:07;4.07;;;2.03;;
50092;SDS011;35974;47.752;10.290;2022-09-12T06:41:37;4.97;;;1.73;;
50092;SDS011;35974;47.752;10.290;2022-09-12T06:44:13;4.05;;;1.98;;
50092;SDS011;35974;47.752;10.290;2022-09-12T06:46:41;4.30;;;1.75;;
50092;SDS011;35974;47.752;10.290;2022-09-12T06:49:08;2.10;;;1.58;;
50092;SDS011;35974;47.752;10.290;2022-09-12T06:51:34;3.40;;;1.80;;
50092;SDS011;35974;47.752;10.290;2022-09-12T06:54:01;3.35;;;1.60;;
50092;SDS011;35974;47.752;10.290;2022-09-12T06:56:28;2.08;;;1.50;;
50092;SDS011;35974;47.752;10.290;2022-09-12T06:58:58;1.60;;;1.30;;
50092;SDS011;35974;47.752;10.290;2022-09-12T07:01:25;2.28;;;1.40;;
50092;SDS011;35974;47.752;10.290;2022-09-12T07:03:59;2.80;;;1.40;;
50092;SDS011;35974;47.752;10.290;2022-09-12T07:06:29;3.00;;;1.20;;
50092;SDS011;35974;47.752;10.290;2022-09-12T07:09:02;3.67;;;1.40;;
50092;SDS011;35974;47.752;10.290;2022-09-12T07:11:31;4.03;;;1.10;;
50092;SDS011;35974;47.752;10.290;2022-09-12T07:14:00;1.63;;;0.90;;
50092;SDS011;35974;47.752;10.290;2022-09-12T07:16:28;3.08;;;1.20;;
50092;SDS011;35974;47.752;10.290;2022-09-12T07:18:56;1.77;;;1.30;;
50092;SDS011;35974;47.752;10.290;2022-09-12T07:21:24;1.60;;;1.20;;
50092;SDS011;35974;47.752;10.290;2022-09-12T07:23:53;2.65;;;1.30;;
50092;SDS011;35974;47.752;10.290;2022-09-12T07:26:27;3.63;;;1.42;;
50092;SDS011;35974;47.752;10.290;2022-09-12T07:28:55;2.47;;;1.20;;
50092;SDS011;35974;47.752;10.290;2022-09-12T07:31:44;2.08;;;1.30;;
50092;SDS011;35974;47.752;10.290;2022-09-12T07:34:11;2.60;;;1.27;;
50092;SDS011;35974;47.752;10.290;2022-09-12T07:36:40;1.65;;;1.15;;
50092;SDS011;35974;47.752;10.290;2022-09-12T07:39:06;2.00;;;1.17;;
50092;SDS011;35974;47.752;10.290;2022-09-12T07:41:32;2.50;;;1.05;;
50092;SDS011;35974;47.752;10.290;2022-09-12T07:44:00;1.55;;;1.15;;
50092;SDS011;35974;47.752;10.290;2022-09-12T07:46:30;4.18;;;1.20;;
50092;SDS011;35974;47.752;10.290;2022-09-12T07:48:57;1.33;;;0.85;;
50092;SDS011;35974;47.752;10.290;2022-09-12T07:51:27;2.45;;;0.82;;
50092;SDS011;35974;47.752;10.290;2022-09-12T07:53:55;2.47;;;0.80;;
50092;SDS011;35974;47.752;10.290;2022-09-12T07:56:23;3.40;;;1.10;;
50092;SDS011;35974;47.752;10.290;2022-09-12T07:58:57;3.03;;;0.90;;
50092;SDS011;35974;47.752;10.290;2022-09-12T08:01:24;1.40;;;0.70;;
50092;SDS011;35974;47.752;10.290;2022-09-12T08:03:57;1.00;;;0.80;;
50092;SDS011;35974;47.752;10.290;2022-09-12T08:06:25;2.63;;;0.73;;
50092;SDS011;35974;47.752;10.290;2022-09-12T08:08:54;1.75;;;0.90;;
50092;SDS011;35974;47.752;10.290;2022-09-12T08:11:22;2.15;;;0.70;;
50092;SDS011;35974;47.752;10.290;2022-09-12T08:13:50;1.45;;;0.60;;
50092;SDS011;35974;47.752;10.290;2022-09-12T08:16:24;1.50;;;0.70;;
50092;SDS011;35974;47.752;10.290;2022-09-12T08:18:52;2.10;;;0.55;;
50092;SDS011;35974;47.752;10.290;2022-09-12T08:21:22;3.78;;;0.70;;
50092;SDS011;35974;47.752;10.290;2022-09-12T08:23:51;2.30;;;0.85;;
50092;SDS011;35974;47.752;10.290;2022-09-12T08:26:20;2.42;;;0.70;;
50092;SDS011;35974;47.752;10.290;2022-09-12T08:28:46;5.32;;;0.75;;
50092;SDS011;35974;47.752;10.290;2022-09-12T08:31:15;2.00;;;0.60;;
50092;SDS011;35974;47.752;10.290;2022-09-12T08:33:45;2.78;;;0.60;;
50092;SDS011;35974;47.752;10.290;2022-09-12T08:38:48;0.85;;;0.60;;
50092;SDS011;35974;47.752;10.290;2022-09-12T08:49:32;1.08;;;0.52;;
50092;SDS011;35974;47.752;10.290;2022-09-12T08:55:25;1.75;;;0.80;;
50092;SDS011;35974;47.752;10.290;2022-09-12T08:58:18;2.80;;;0.73;;
50092;SDS011;35974;47.752;10.290;2022-09-12T09:00:48;2.72;;;0.60;;
50092;SDS011;35974;47.752;10.290;2022-09-12T09:09:04;0.30;;;0.30;;
50092;SDS011;35974;47.752;10.290;2022-09-12T09:11:56;0.40;;;0.40;;
50092;SDS011;35974;47.752;10.290;2022-09-12T09:17:56;4.25;;;0.50;;
50092;SDS011;35974;47.752;10.290;2022-09-12T09:22:43;0.65;;;0.30;;
50092;SDS011;35974;47.752;10.290;2022-09-12T09:25:24;1.23;;;0.40;;
50092;SDS011;35974;47.752;10.290;2022-09-12T09:28:01;2.67;;;0.50;;
50092;SDS011;35974;47.752;10.290;2022-09-12T09:30:34;0.80;;;0.40;;
50092;SDS011;35974;47.752;10.290;2022-09-12T09:33:02;1.25;;;0.35;;
50092;SDS011;35974;47.752;10.290;2022-09-12T09:38:24;1.48;;;0.40;;
50092;SDS011;35974;47.752;10.290;2022-09-12T09:41:06;0.43;;;0.35;;
50092;SDS011;35974;47.752;10.290;2022-09-12T09:43:55;0.50;;;0.40;;
50092;SDS011;35974;47.752;10.290;2022-09-12T09:46:24;2.05;;;0.30;;
50092;SDS011;35974;47.752;10.290;2022-09-12T09:48:52;0.82;;;0.43;;
50092;SDS011;35974;47.752;10.290;2022-09-12T09:51:23;0.55;;;0.40;;
50092;SDS011;35974;47.752;10.290;2022-09-12T09:53:57;0.73;;;0.28;;
50092;SDS011;35974;47.752;10.290;2022-09-12T09:56:28;2.40;;;0.50;;
50092;SDS011;35974;47.752;10.290;2022-09-12T09:59:08;0.50;;;0.40;;
50092;SDS011;35974;47.752;10.290;2022-09-12T10:01:45;0.90;;;0.40;;
50092;SDS011;35974;47.752;10.290;2022-09-12T10:04:18;2.15;;;0.50;;
50092;SDS011;35974;47.752;10.290;2022-09-12T10:06:47;0.50;;;0.30;;
50092;SDS011;35974;47.752;10.290;2022-09-12T10:09:19;0.40;;;0.30;;
50092;SDS011;35974;47.752;10.290;2022-09-12T10:11:48;1.27;;;0.40;;
50092;SDS011;35974;47.752;10.290;2022-09-12T10:14:26;1.27;;;0.50;;
50092;SDS011;35974;47.752;10.290;2022-09-12T10:16:53;0.98;;;0.50;;
50092;SDS011;35974;47.752;10.290;2022-09-12T10:19:20;0.68;;;0.47;;
50092;SDS011;35974;47.752;10.290;2022-09-12T10:21:54;1.15;;;0.40;;
50092;SDS011;35974;47.752;10.290;2022-09-12T10:24:25;0.55;;;0.47;;
50092;SDS011;35974;47.752;10.290;2022-09-12T10:27:13;1.27;;;0.50;;
50092;SDS011;35974;47.752;10.290;2022-09-12T10:29:59;3.03;;;0.40;;
50092;SDS011;35974;47.752;10.290;2022-09-12T10:32:35;2.20;;;0.40;;
50092;SDS011;35974;47.752;10.290;2022-09-12T10:35:19;0.50;;;0.40;;
50092;SDS011;35974;47.752;10.290;2022-09-12T10:40:34;1.88;;;0.40;;
50092;SDS011;35974;47.752;10.290;2022-09-12T10:45:44;0.50;;;0.50;;
50092;SDS011;35974;47.752;10.290;2022-09-12T10:50:54;0.70;;;0.40;;
50092;SDS011;35974;47.752;10.290;2022-09-12T10:53:25;0.30;;;0.30;;
50092;SDS011;35974;47.752;10.290;2022-09-12T11:07:34;0.75;;;0.32;;
50092;SDS011;35974;47.752;10.290;2022-09-12T11:15:41;2.10;;;0.30;;
50092;SDS011;35974;47.752;10.290;2022-09-12T11:35:27;1.58;;;0.40;;
50092;SDS011;35974;47.752;10.290;2022-09-12T11:43:27;0.60;;;0.20;;
50092;SDS011;35974;47.752;10.290;2022-09-12T11:45:57;1.40;;;0.40;;
50092;SDS011;35974;47.752;10.290;2022-09-12T11:51:25;1.55;;;0.40;;
50092;SDS011;35974;47.752;10.290;2022-09-12T11:54:31;0.35;;;0.35;;
50092;SDS011;35974;47.752;10.290;2022-09-12T11:56:49;1.20;;;0.28;;
50092;SDS011;35974;47.752;10.290;2022-09-12T11:59:33;0.73;;;0.32;;
50092;SDS011;35974;47.752;10.290;2022-09-12T12:02:11;1.42;;;0.40;;
50092;SDS011;35974;47.752;10.290;2022-09-12T12:04:58;1.63;;;0.40;;
50092;SDS011;35974;47.752;10.290;2022-09-12T12:07:34;1.70;;;0.50;;
50092;SDS011;35974;47.752;10.290;2022-09-12T12:10:21;0.75;;;0.43;;
50092;SDS011;35974;47.752;10.290;2022-09-12T12:12:51;2.15;;;0.55;;
50092;SDS011;35974;47.752;10.290;2022-09-12T12:15:19;1.45;;;0.40;;
50092;SDS011;35974;47.752;10.290;2022-09-12T12:18:01;0.40;;;0.30;;
50092;SDS011;35974;47.752;10.290;2022-09-12T12:20:32;0.93;;;0.40;;
50092;SDS011;35974;47.752;10.290;2022-09-12T12:23:00;1.13;;;0.30;;
50092;SDS011;35974;47.752;10.290;2022-09-12T12:25:40;1.23;;;0.30;;
50092;SDS011;35974;47.752;10.290;2022-09-12T12:31:08;1.63;;;0.30;;
50092;SDS011;35974;47.752;10.290;2022-09-12T12:36:03;2.40;;;0.35;;
50092;SDS011;35974;47.752;10.290;2022-09-12T12:38:53;1.35;;;0.30;;
50092;SDS011;35974;47.752;10.290;2022-09-12T12:43:47;1.00;;;0.45;;
50092;SDS011;35974;47.752;10.290;2022-09-12T12:46:20;1.08;;;0.30;;
50092;SDS011;35974;47.752;10.290;2022-09-12T12:48:55;0.80;;;0.40;;
50092;SDS011;35974;47.752;10.290;2022-09-12T12:59:49;1.40;;;0.30;;
50092;SDS011;35974;47.752;10.290;2022-09-12T13:02:20;0.90;;;0.30;;
50092;SDS011;35974;47.752;10.290;2022-09-12T13:04:50;0.50;;;0.30;;
50092;SDS011;35974;47.752;10.290;2022-09-12T13:07:26;0.68;;;0.30;;
50092;SDS011;35974;47.752;10.290;2022-09-12T13:09:57;0.82;;;0.40;;
50092;SDS011;35974;47.752;10.290;2022-09-12T13:12:42;1.05;;;0.30;;
50092;SDS011;35974;47.752;10.290;2022-09-12T13:15:47;0.52;;;0.40;;
50092;SDS011;35974;47.752;10.290;2022-09-12T13:18:06;1.00;;;0.40;;
50092;SDS011;35974;47.752;10.290;2022-09-12T13:20:48;3.13;;;0.30;;
50092;SDS011;35974;47.752;10.290;2022-09-12T13:23:31;0.82;;;0.40;;
50092;SDS011;35974;47.752;10.290;2022-09-12T13:25:58;0.60;;;0.30;;
50092;SDS011;35974;47.752;10.290;2022-09-12T13:28:28;1.23;;;0.45;;
50092;SDS011;35974;47.752;10.290;2022-09-12T13:30:59;2.05;;;0.40;;
50092;SDS011;35974;47.752;10.290;2022-09-12T13:33:41;0.85;;;0.30;;
50092;SDS011;35974;47.752;10.290;2022-09-12T13:36:31;1.05;;;0.40;;
50092;SDS011;35974;47.752;10.290;2022-09-12T13:44:30;1.60;;;0.50;;
50092;SDS011;35974;47.752;10.290;2022-09-12T13:47:01;1.83;;;0.45;;
50092;SDS011;35974;47.752;10.290;2022-09-12T13:52:03;0.30;;;0.20;;
50092;SDS011;35974;47.752;10.290;2022-09-12T13:54:32;2.05;;;0.43;;
50092;SDS011;35974;47.752;10.290;2022-09-12T13:57:03;0.40;;;0.20;;
50092;SDS011;35974;47.752;10.290;2022-09-12T13:59:40;0.95;;;0.30;;
50092;SDS011;35974;47.752;10.290;2022-09-12T14:02:19;0.60;;;0.20;;
50092;SDS011;35974;47.752;10.290;2022-09-12T14:04:47;0.43;;;0.32;;
50092;SDS011;35974;47.752;10.290;2022-09-12T14:10:39;2.40;;;0.30;;
50092;SDS011;35974;47.752;10.290;2022-09-12T14:13:14;4.10;;;0.40;;
50092;SDS011;35974;47.752;10.290;2022-09-12T14:15:44;0.85;;;0.40;;
50092;SDS011;35974;47.752;10.290;2022-09-12T14:18:26;0.55;;;0.30;;
50092;SDS011;35974;47.752;10.290;2022-09-12T14:20:57;0.45;;;0.20;;
50092;SDS011;35974;47.752;10.290;2022-09-12T14:23:36;1.27;;;0.22;;
50092;SDS011;35974;47.752;10.290;2022-09-12T14:26:08;1.13;;;0.30;;
50092;SDS011;35974;47.752;10.290;2022-09-12T14:28:40;0.55;;;0.30;;
50092;SDS011;35974;47.752;10.290;2022-09-12T14:33:51;0.40;;;0.20;;
50092;SDS011;35974;47.752;10.290;2022-09-12T14:36:39;1.85;;;0.40;;
50092;SDS011;35974;47.752;10.290;2022-09-12T14:39:17;0.75;;;0.50;;
50092;SDS011;35974;47.752;10.290;2022-09-12T14:41:45;0.30;;;0.30;;
50092;SDS011;35974;47.752;10.290;2022-09-12T14:44:16;5.88;;;0.40;;
50092;SDS011;35974;47.752;10.290;2022-09-12T14:46:46;0.60;;;0.30;;
50092;SDS011;35974;47.752;10.290;2022-09-12T14:56:57;0.50;;;0.32;;
50092;SDS011;35974;47.752;10.290;2022-09-12T15:04:49;2.20;;;0.35;;
50092;SDS011;35974;47.752;10.290;2022-09-12T15:07:28;0.63;;;0.40;;
50092;SDS011;35974;47.752;10.290;2022-09-12T15:09:56;1.38;;;0.30;;
50092;SDS011;35974;47.752;10.290;2022-09-12T15:12:24;0.20;;;0.20;;
50092;SDS011;35974;47.752;10.290;2022-09-12T15:14:51;0.88;;;0.50;;
50092;SDS011;35974;47.752;10.290;2022-09-12T15:17:19;0.57;;;0.30;;
50092;SDS011;35974;47.752;10.290;2022-09-12T15:19:46;2.28;;;0.38;;
50092;SDS011;35974;47.752;10.290;2022-09-12T15:22:12;0.40;;;0.20;;
50092;SDS011;35974;47.752;10.290;2022-09-12T15:24:39;0.65;;;0.30;;
50092;SDS011;35974;47.752;10.290;2022-09-12T15:27:11;0.90;;;0.35;;
50092;SDS011;35974;47.752;10.290;2022-09-12T15:29:38;0.60;;;0.30;;
50092;SDS011;35974;47.752;10.290;2022-09-12T15:32:05;1.92;;;0.40;;
50092;SDS011;35974;47.752;10.290;2022-09-12T15:34:32;1.13;;;0.30;;
50092;SDS011;35974;47.752;10.290;2022-09-12T15:36:58;2.58;;;0.40;;
50092;SDS011;35974;47.752;10.290;2022-09-12T15:39:26;1.15;;;0.40;;
50092;SDS011;35974;47.752;10.290;2022-09-12T15:41:52;1.02;;;0.32;;
50092;SDS011;35974;47.752;10.290;2022-09-12T15:44:19;0.77;;;0.25;;
50092;SDS011;35974;47.752;10.290;2022-09-12T15:46:46;3.75;;;0.40;;
50092;SDS011;35974;47.752;10.290;2022-09-12T15:49:13;1.85;;;0.30;;
50092;SDS011;35974;47.752;10.290;2022-09-12T15:51:39;0.75;;;0.40;;
50092;SDS011;35974;47.752;10.290;2022-09-12T15:54:05;0.65;;;0.40;;
50092;SDS011;35974;47.752;10.290;2022-09-12T15:56:33;1.05;;;0.40;;
50092;SDS011;35974;47.752;10.290;2022-09-12T15:58:59;1.15;;;0.20;;
50092;SDS011;35974;47.752;10.290;2022-09-12T16:01:27;0.63;;;0.20;;
50092;SDS011;35974;47.752;10.290;2022-09-12T16:03:54;0.17;;;0.15;;
50092;SDS011;35974;47.752;10.290;2022-09-12T16:06:21;0.30;;;0.20;;
50092;SDS011;35974;47.752;10.290;2022-09-12T16:08:50;1.83;;;0.30;;
50092;SDS011;35974;47.752;10.290;2022-09-12T16:11:21;0.60;;;0.30;;
50092;SDS011;35974;47.752;10.290;2022-09-12T16:13:50;0.50;;;0.20;;
50092;SDS011;35974;47.752;10.290;2022-09-12T16:16:17;2.90;;;0.45;;
50092;SDS011;35974;47.752;10.290;2022-09-12T16:18:44;1.88;;;0.20;;
50092;SDS011;35974;47.752;10.290;2022-09-12T16:21:11;2.78;;;0.30;;
50092;SDS011;35974;47.752;10.290;2022-09-12T16:23:41;2.17;;;0.50;;
50092;SDS011;35974;47.752;10.290;2022-09-12T16:26:11;0.82;;;0.30;;
50092;SDS011;35974;47.752;10.290;2022-09-12T16:28:37;1.73;;;0.25;;
50092;SDS011;35974;47.752;10.290;2022-09-12T16:31:05;1.45;;;0.50;;
50092;SDS011;35974;47.752;10.290;2022-09-12T16:33:33;0.77;;;0.40;;
50092;SDS011;35974;47.752;10.290;2022-09-12T16:36:05;1.77;;;0.40;;
50092;SDS011;35974;47.752;10.290;2022-09-12T16:38:38;0.85;;;0.30;;
50092;SDS011;35974;47.752;10.290;2022-09-12T16:41:06;2.20;;;0.50;;
50092;SDS011;35974;47.752;10.290;2022-09-12T16:43:33;0.38;;;0.25;;
50092;SDS011;35974;47.752;10.290;2022-09-12T16:46:01;1.45;;;0.47;;
50092;SDS011;35974;47.752;10.290;2022-09-12T16:48:32;2.38;;;0.40;;
50092;SDS011;35974;47.752;10.290;2022-09-12T16:50:59;2.53;;;0.35;;
50092;SDS011;35974;47.752;10.290;2022-09-12T16:53:30;0.88;;;0.30;;
50092;SDS011;35974;47.752;10.290;2022-09-12T16:55:58;1.70;;;0.30;;
50092;SDS011;35974;47.752;10.290;2022-09-12T16:58:26;2.50;;;0.50;;
50092;SDS011;35974;47.752;10.290;2022-09-12T17:00:59;0.90;;;0.60;;
50092;SDS011;35974;47.752;10.290;2022-09-12T17:03:31;4.85;;;0.40;;
50092;SDS011;35974;47.752;10.290;2022-09-12T17:05:59;0.77;;;0.50;;
50092;SDS011;35974;47.752;10.290;2022-09-12T17:08:26;0.65;;;0.50;;
50092;SDS011;35974;47.752;10.290;2022-09-12T17:11:00;1.17;;;0.50;;
50092;SDS011;35974;47.752;10.290;2022-09-12T17:13:28;1.80;;;0.35;;
50092;SDS011;35974;47.752;10.290;2022-09-12T17:16:15;2.05;;;0.50;;
50092;SDS011;35974;47.752;10.290;2022-09-12T17:18:42;0.85;;;0.40;;
50092;SDS011;35974;47.752;10.290;2022-09-12T17:21:09;0.85;;;0.50;;
50092;SDS011;35974;47.752;10.290;2022-09-12T17:23:38;0.40;;;0.22;;
50092;SDS011;35974;47.752;10.290;2022-09-12T17:26:05;1.40;;;0.70;;
50092;SDS011;35974;47.752;10.290;2022-09-12T17:28:32;0.55;;;0.35;;
50092;SDS011;35974;47.752;10.290;2022-09-12T17:30:59;2.40;;;0.50;;
50092;SDS011;35974;47.752;10.290;2022-09-12T17:33:31;0.70;;;0.50;;
50092;SDS011;35974;47.752;10.290;2022-09-12T17:36:01;1.10;;;0.45;;
50092;SDS011;35974;47.752;10.290;2022-09-12T17:38:30;0.63;;;0.30;;
50092;SDS011;35974;47.752;10.290;2022-09-12T17:41:05;1.42;;;0.32;;
50092;SDS011;35974;47.752;10.290;2022-09-12T17:43:34;0.70;;;0.47;;
50092;SDS011;35974;47.752;10.290;2022-09-12T17:46:03;0.70;;;0.35;;
50092;SDS011;35974;47.752;10.290;2022-09-12T17:48:30;0.75;;;0.50;;
50092;SDS011;35974;47.752;10.290;2022-09-12T17:50:57;1.23;;;0.50;;